createdAt,value
2022-09-30T00:00:50.505Z,1.00
2022-09-30T00:06:07.847Z,99.90
2022-09-30T00:11:20.941Z,1.00
2022-09-30T00:16:30.025Z,1.00
2022-09-30T00:21:36.861Z,99.90
2022-09-30T00:26:43.567Z,1.00
2022-09-30T00:31:49.270Z,99.90
2022-09-30T00:36:55.288Z,1.00
2022-09-30T00:42:03.879Z,1.00
2022-09-30T00:47:38.353Z,1.00
2022-09-30T00:52:46.547Z,99.90
2022-09-30T00:57:52.790Z,99.90
2022-09-30T01:02:59.474Z,99.90
2022-09-30T01:08:07.951Z,99.90
2022-09-30T01:13:14.942Z,99.90
2022-09-30T01:18:35.902Z,99.90
2022-09-30T01:24:06.290Z,99.90
2022-09-30T01:29:44.573Z,99.90
2022-09-30T01:35:15.496Z,99.90
2022-09-30T01:40:57.145Z,99.90
2022-09-30T01:46:23.725Z,99.90
2022-09-30T01:51:55.093Z,99.90
2022-09-30T01:57:11.555Z,99.90
2022-09-30T02:02:31.792Z,99.90
2022-09-30T02:07:49.718Z,99.90
2022-09-30T02:13:07.374Z,99.90
2022-09-30T02:18:24.404Z,99.90
2022-09-30T02:23:35.403Z,99.90
2022-09-30T02:28:47.412Z,99.90
2022-09-30T02:34:18.552Z,99.90
2022-09-30T02:40:02.000Z,99.90
2022-09-30T02:45:19.702Z,99.90
2022-09-30T02:50:57.788Z,99.90
2022-09-30T02:56:15.023Z,99.90
2022-09-30T03:01:21.517Z,99.90
2022-09-30T03:06:27.667Z,99.90
2022-09-30T03:11:33.321Z,99.90
2022-09-30T03:17:10.352Z,99.90
2022-09-30T03:22:59.638Z,99.90
2022-09-30T03:28:42.388Z,99.90
2022-09-30T03:34:07.251Z,99.90
2022-09-30T03:39:40.335Z,99.90
2022-09-30T03:45:08.099Z,99.90
2022-09-30T03:50:19.243Z,99.90
2022-09-30T03:55:27.105Z,99.90
2022-09-30T04:00:34.277Z,99.90
2022-09-30T04:05:43.986Z,99.90
2022-09-30T04:10:49.687Z,99.90
2022-09-30T04:15:56.884Z,99.90
2022-09-30T04:21:09.075Z,99.90
2022-09-30T04:26:17.530Z,99.90
2022-09-30T04:31:23.574Z,99.90
2022-09-30T04:36:37.800Z,99.90
2022-09-30T04:41:54.246Z,99.90
2022-09-30T04:47:00.828Z,99.90
2022-09-30T04:52:08.193Z,99.90
2022-09-30T04:57:15.773Z,99.90
2022-09-30T05:02:29.501Z,99.90
2022-09-30T05:07:36.029Z,12.70
2022-09-30T05:12:42.914Z,99.90
2022-09-30T05:17:54.981Z,99.90
2022-09-30T05:23:00.489Z,1.00
2022-09-30T05:28:06.252Z,1.00
2022-09-30T05:33:14.986Z,81.80
2022-09-30T05:38:20.503Z,99.90
2022-09-30T05:43:26.434Z,99.90
2022-09-30T05:48:31.922Z,99.90
2022-09-30T05:53:41.784Z,99.90
2022-09-30T05:58:49.171Z,99.90
2022-09-30T06:03:57.815Z,99.90
2022-09-30T06:09:03.735Z,99.90
2022-09-30T06:14:10.355Z,99.90
2022-09-30T06:19:16.390Z,99.90
2022-09-30T06:24:22.447Z,99.90
2022-09-30T06:29:28.163Z,99.90
2022-09-30T06:34:36.233Z,99.90
2022-09-30T06:39:43.473Z,99.90
2022-09-30T06:44:53.226Z,99.90
2022-09-30T06:50:00.830Z,99.90
2022-09-30T06:55:06.921Z,99.90
2022-09-30T07:00:13.499Z,99.90
2022-09-30T07:05:19.846Z,99.90
2022-09-30T07:10:25.526Z,99.90
2022-09-30T07:15:31.795Z,99.90
2022-09-30T07:20:40.334Z,99.90
2022-09-30T07:26:04.567Z,99.90
2022-09-30T07:31:32.085Z,99.90
2022-09-30T07:36:41.622Z,99.90
2022-09-30T07:41:47.464Z,99.90
2022-09-30T07:46:52.771Z,99.90
2022-09-30T07:52:01.324Z,99.90
2022-09-30T07:57:10.520Z,99.90
2022-09-30T08:02:21.899Z,99.90
2022-09-30T08:07:27.909Z,99.90
2022-09-30T08:12:33.464Z,99.90
2022-09-30T08:17:38.815Z,99.90
2022-09-30T08:22:44.703Z,99.90
2022-09-30T08:27:49.980Z,99.90
2022-09-30T08:32:55.415Z,99.90
2022-09-30T08:38:01.325Z,99.90
2022-09-30T08:43:17.155Z,99.90
2022-09-30T08:48:35.389Z,99.90
2022-09-30T08:53:45.403Z,99.90
2022-09-30T08:58:53.589Z,99.90
2022-09-30T09:04:00.686Z,99.90
2022-09-30T09:09:37.762Z,99.90
2022-09-30T09:15:02.763Z,99.90
2022-09-30T09:20:36.143Z,99.90
2022-09-30T09:25:42.166Z,99.90
2022-09-30T09:30:55.046Z,99.90
2022-09-30T09:36:48.907Z,99.90
2022-09-30T09:42:15.598Z,99.90
2022-09-30T09:47:22.364Z,99.90
2022-09-30T09:52:57.048Z,99.90
2022-09-30T09:58:28.977Z,99.90
2022-09-30T10:03:35.903Z,99.90
2022-09-30T10:08:54.977Z,99.90
2022-09-30T10:14:02.732Z,99.90
2022-09-30T10:19:28.808Z,99.90
2022-09-30T10:24:34.053Z,99.90
2022-09-30T10:29:50.058Z,99.90
2022-09-30T10:35:23.498Z,99.90
2022-09-30T10:40:32.398Z,99.90
2022-09-30T10:45:42.984Z,99.90
2022-09-30T10:51:01.076Z,99.90
2022-09-30T10:56:08.750Z,99.90
2022-09-30T11:01:53.708Z,99.90
2022-09-30T11:07:17.891Z,99.90
2022-09-30T11:12:33.603Z,99.90
2022-09-30T11:17:49.088Z,99.90
2022-09-30T11:23:25.107Z,99.90
2022-09-30T11:28:39.652Z,99.90
2022-09-30T11:34:18.618Z,99.90
2022-09-30T11:39:38.485Z,99.90
2022-09-30T11:44:46.929Z,99.90
2022-09-30T11:50:21.195Z,99.90
2022-09-30T11:55:29.828Z,99.90
2022-09-30T12:00:42.218Z,99.90
2022-09-30T12:06:13.901Z,99.90
2022-09-30T12:11:25.106Z,99.90
2022-09-30T12:16:34.142Z,99.90
2022-09-30T12:21:47.139Z,99.90
2022-09-30T12:26:54.295Z,99.90
2022-09-30T12:32:30.725Z,99.90
2022-09-30T12:38:25.011Z,99.90
2022-09-30T12:43:59.460Z,99.90
2022-09-30T12:49:28.925Z,99.90
2022-09-30T12:54:41.568Z,99.90
2022-09-30T12:59:56.637Z,99.90
2022-09-30T13:05:32.256Z,99.90
2022-09-30T13:10:49.909Z,99.90
2022-09-30T13:16:12.729Z,99.90
2022-09-30T13:21:24.333Z,99.90
2022-09-30T13:26:35.114Z,99.90
2022-09-30T13:31:56.749Z,99.90
2022-09-30T13:37:11.119Z,99.90
2022-09-30T13:42:25.131Z,99.90
2022-09-30T13:47:56.972Z,99.90
2022-09-30T13:53:07.344Z,99.90
2022-09-30T13:58:49.668Z,99.90
2022-09-30T14:04:28.863Z,99.90
2022-09-30T14:10:09.117Z,28.70
2022-09-30T14:15:27.585Z,99.90
2022-09-30T14:21:10.304Z,1.00
2022-09-30T14:26:35.586Z,1.00
2022-09-30T14:31:49.442Z,99.90
2022-09-30T14:36:56.994Z,1.00
2022-09-30T14:42:05.041Z,99.90
2022-09-30T14:47:17.503Z,99.90
2022-09-30T14:52:39.290Z,99.90
2022-09-30T14:58:30.354Z,99.90
2022-09-30T15:03:42.431Z,49.90
2022-09-30T15:08:50.409Z,99.90
2022-09-30T15:14:05.483Z,99.90
2022-09-30T15:19:38.666Z,99.90
2022-09-30T15:24:47.482Z,66.60
2022-09-30T15:29:57.612Z,16.30
2022-09-30T15:35:17.261Z,1.00
2022-09-30T15:40:44.732Z,13.70
2022-09-30T15:46:01.354Z,1.00
2022-09-30T15:51:32.165Z,1.00
2022-09-30T15:56:40.140Z,1.00
2022-09-30T16:02:38.389Z,1.00
2022-09-30T16:07:45.002Z,1.00
2022-09-30T16:12:55.054Z,1.00
2022-09-30T16:18:10.331Z,1.00
2022-09-30T16:23:38.239Z,1.00
2022-09-30T16:28:47.277Z,1.00
2022-09-30T16:33:52.901Z,1.00
2022-09-30T16:38:59.104Z,1.00
2022-09-30T16:44:05.210Z,1.00
2022-09-30T16:49:20.402Z,1.00
2022-09-30T16:54:25.845Z,1.00
2022-09-30T16:59:34.309Z,1.00
2022-09-30T17:04:40.772Z,1.00
2022-09-30T17:09:47.153Z,1.00
2022-09-30T17:14:52.886Z,1.00
2022-09-30T17:19:58.645Z,1.00
2022-09-30T17:25:04.882Z,1.00
2022-09-30T17:30:12.402Z,1.00
2022-09-30T17:35:18.489Z,1.00
2022-09-30T17:40:41.249Z,99.90
2022-09-30T17:45:48.776Z,99.90
2022-09-30T17:50:57.453Z,99.90
2022-09-30T17:56:12.513Z,99.90
2022-09-30T18:01:20.739Z,99.90
2022-09-30T18:06:26.602Z,99.90
2022-09-30T18:11:32.897Z,99.90
2022-09-30T18:16:39.111Z,99.90
2022-09-30T18:21:44.935Z,99.90
2022-09-30T18:26:50.682Z,99.90
2022-09-30T18:31:56.381Z,99.90
2022-09-30T18:37:05.809Z,99.90
2022-09-30T18:42:11.537Z,99.90
2022-09-30T18:47:18.737Z,99.90
2022-09-30T18:52:24.119Z,99.90
2022-09-30T18:57:30.586Z,99.90
2022-09-30T19:02:36.635Z,99.90
2022-09-30T19:07:42.607Z,99.90
2022-09-30T19:12:48.210Z,99.90
2022-09-30T19:17:55.510Z,99.90
2022-09-30T19:23:01.267Z,99.90
2022-09-30T19:28:07.047Z,99.90
2022-09-30T19:33:12.524Z,99.90
2022-09-30T19:38:19.832Z,99.90
2022-09-30T19:43:27.789Z,1.00
2022-09-30T19:48:34.645Z,1.00
2022-09-30T19:53:55.392Z,1.00
2022-09-30T19:59:05.114Z,1.00
2022-09-30T20:04:11.431Z,1.00
2022-09-30T20:09:17.235Z,1.00
2022-09-30T20:14:41.041Z,1.00
2022-09-30T20:20:06.513Z,1.00
2022-09-30T20:25:12.629Z,99.90
2022-09-30T20:30:19.005Z,99.90
2022-09-30T20:35:24.607Z,14.80
2022-09-30T20:40:30.551Z,1.00
2022-09-30T20:45:35.918Z,99.90
2022-09-30T20:50:44.005Z,99.90
2022-09-30T20:55:49.491Z,1.00
2022-09-30T21:00:55.369Z,1.00
2022-09-30T21:06:01.645Z,1.00
2022-09-30T21:11:07.619Z,1.00
2022-09-30T21:16:16.633Z,1.00
2022-09-30T21:21:24.611Z,86.70
2022-09-30T21:26:30.401Z,99.90
2022-09-30T21:31:36.770Z,99.90
2022-09-30T21:36:42.515Z,99.90
2022-09-30T21:41:49.263Z,99.90
2022-09-30T21:46:55.258Z,99.90
2022-09-30T21:52:01.779Z,99.90
2022-09-30T21:57:09.263Z,99.90
2022-09-30T22:02:15.618Z,99.90
2022-09-30T22:07:23.462Z,99.90
2022-09-30T22:12:28.915Z,99.90
2022-09-30T22:17:34.404Z,99.90
2022-09-30T22:22:40.217Z,99.90
2022-09-30T22:27:45.882Z,99.90
2022-09-30T22:33:10.869Z,99.90
2022-09-30T22:38:16.896Z,99.90
2022-09-30T22:43:25.379Z,99.90
2022-09-30T22:48:32.287Z,99.90
2022-09-30T22:53:37.849Z,99.90
2022-09-30T22:58:43.562Z,99.90
2022-09-30T23:03:50.252Z,99.90
2022-09-30T23:08:57.342Z,99.90
2022-09-30T23:14:04.762Z,99.90
2022-09-30T23:19:11.219Z,99.90
2022-09-30T23:24:16.796Z,99.90
2022-09-30T23:29:23.332Z,99.90
2022-09-30T23:34:29.162Z,99.90
2022-09-30T23:39:35.489Z,99.90
2022-09-30T23:44:41.650Z,99.90
2022-09-30T23:49:47.940Z,99.90
2022-09-30T23:54:53.655Z,99.90
2022-09-30T23:59:59.742Z,99.90
